sensor_id;sensor_type;location;lat;lon;timestamp;P1;durP1;ratioP1;P2;durP2;ratioP2
25125;SDS011;13106;50.808;5.670;2022-12-05T00:03:48;56.33;;;32.10;;
25125;SDS011;13106;50.808;5.670;2022-12-05T00:06:15;57.17;;;34.08;;
25125;SDS011;13106;50.808;5.670;2022-12-05T00:08:41;53.30;;;32.42;;
25125;SDS011;13106;50.808;5.670;2022-12-05T00:11:14;58.40;;;32.67;;
25125;SDS011;13106;50.808;5.670;2022-12-05T00:13:41;52.17;;;31.63;;
25125;SDS011;13106;50.808;5.670;2022-12-05T00:16:08;57.33;;;33.30;;
25125;SDS011;13106;50.808;5.670;2022-12-05T00:18:34;58.30;;;31.63;;
25125;SDS011;13106;50.808;5.670;2022-12-05T00:21:00;59.80;;;32.80;;
25125;SDS011;13106;50.808;5.670;2022-12-05T00:23:26;51.83;;;30.85;;
25125;SDS011;13106;50.808;5.670;2022-12-05T00:25:52;56.33;;;31.98;;
25125;SDS011;13106;50.808;5.670;2022-12-05T00:28:18;55.42;;;31.60;;
25125;SDS011;13106;50.808;5.670;2022-12-05T00:30:44;57.10;;;33.97;;
25125;SDS011;13106;50.808;5.670;2022-12-05T00:33:10;56.88;;;32.72;;
25125;SDS011;13106;50.808;5.670;2022-12-05T00:35:36;56.33;;;34.50;;
25125;SDS011;13106;50.808;5.670;2022-12-05T00:38:02;59.20;;;35.00;;
25125;SDS011;13106;50.808;5.670;2022-12-05T00:40:28;52.88;;;33.95;;
25125;SDS011;13106;50.808;5.670;2022-12-05T00:42:54;58.10;;;37.13;;
25125;SDS011;13106;50.808;5.670;2022-12-05T00:45:20;55.72;;;35.25;;
25125;SDS011;13106;50.808;5.670;2022-12-05T00:47:46;59.58;;;37.10;;
25125;SDS011;13106;50.808;5.670;2022-12-05T00:50:12;61.63;;;34.50;;
25125;SDS011;13106;50.808;5.670;2022-12-05T00:52:38;59.92;;;36.35;;
25125;SDS011;13106;50.808;5.670;2022-12-05T00:55:04;59.45;;;37.33;;
25125;SDS011;13106;50.808;5.670;2022-12-05T00:57:31;59.33;;;33.72;;
25125;SDS011;13106;50.808;5.670;2022-12-05T00:59:57;60.13;;;35.10;;
25125;SDS011;13106;50.808;5.670;2022-12-05T01:02:23;57.20;;;35.08;;
25125;SDS011;13106;50.808;5.670;2022-12-05T01:04:49;63.33;;;36.08;;
25125;SDS011;13106;50.808;5.670;2022-12-05T01:07:15;56.25;;;32.00;;
25125;SDS011;13106;50.808;5.670;2022-12-05T01:09:41;58.92;;;35.30;;
25125;SDS011;13106;50.808;5.670;2022-12-05T01:12:07;64.38;;;35.40;;
25125;SDS011;13106;50.808;5.670;2022-12-05T01:14:33;56.28;;;34.10;;
25125;SDS011;13106;50.808;5.670;2022-12-05T01:16:59;64.03;;;34.05;;
25125;SDS011;13106;50.808;5.670;2022-12-05T01:19:26;59.38;;;35.40;;
25125;SDS011;13106;50.808;5.670;2022-12-05T01:21:53;64.30;;;34.90;;
25125;SDS011;13106;50.808;5.670;2022-12-05T01:24:20;61.33;;;33.42;;
25125;SDS011;13106;50.808;5.670;2022-12-05T01:26:46;69.05;;;37.92;;
25125;SDS011;13106;50.808;5.670;2022-12-05T01:29:13;66.10;;;36.85;;
25125;SDS011;13106;50.808;5.670;2022-12-05T01:31:40;68.50;;;39.13;;
25125;SDS011;13106;50.808;5.670;2022-12-05T01:34:08;73.22;;;38.63;;
25125;SDS011;13106;50.808;5.670;2022-12-05T01:36:35;69.45;;;37.58;;
25125;SDS011;13106;50.808;5.670;2022-12-05T01:39:03;70.57;;;37.33;;
25125;SDS011;13106;50.808;5.670;2022-12-05T01:41:30;71.10;;;39.08;;
25125;SDS011;13106;50.808;5.670;2022-12-05T01:44:01;70.43;;;36.63;;
25125;SDS011;13106;50.808;5.670;2022-12-05T01:46:28;73.07;;;39.00;;
25125;SDS011;13106;50.808;5.670;2022-12-05T01:49:18;73.88;;;39.28;;
25125;SDS011;13106;50.808;5.670;2022-12-05T01:51:44;73.43;;;38.15;;
25125;SDS011;13106;50.808;5.670;2022-12-05T01:54:10;71.28;;;39.30;;
25125;SDS011;13106;50.808;5.670;2022-12-05T01:56:36;67.78;;;38.75;;
25125;SDS011;13106;50.808;5.670;2022-12-05T01:59:05;78.80;;;39.80;;
25125;SDS011;13106;50.808;5.670;2022-12-05T02:01:32;71.90;;;38.95;;
25125;SDS011;13106;50.808;5.670;2022-12-05T02:03:58;69.88;;;37.53;;
25125;SDS011;13106;50.808;5.670;2022-12-05T02:06:25;69.63;;;38.55;;
25125;SDS011;13106;50.808;5.670;2022-12-05T02:08:52;70.93;;;38.65;;
25125;SDS011;13106;50.808;5.670;2022-12-05T02:11:18;76.07;;;39.15;;
25125;SDS011;13106;50.808;5.670;2022-12-05T02:16:37;67.63;;;38.28;;
25125;SDS011;13106;50.808;5.670;2022-12-05T02:32:06;72.55;;;37.95;;
25125;SDS011;13106;50.808;5.670;2022-12-05T02:34:46;72.05;;;36.17;;
25125;SDS011;13106;50.808;5.670;2022-12-05T02:37:21;73.25;;;37.03;;
25125;SDS011;13106;50.808;5.670;2022-12-05T02:42:51;68.40;;;36.38;;
25125;SDS011;13106;50.808;5.670;2022-12-05T02:45:21;62.92;;;34.40;;
25125;SDS011;13106;50.808;5.670;2022-12-05T02:47:50;64.93;;;31.85;;
25125;SDS011;13106;50.808;5.670;2022-12-05T02:50:18;68.18;;;36.95;;
25125;SDS011;13106;50.808;5.670;2022-12-05T02:52:45;69.70;;;35.65;;
25125;SDS011;13106;50.808;5.670;2022-12-05T02:55:13;65.50;;;35.92;;
25125;SDS011;13106;50.808;5.670;2022-12-05T02:57:41;70.85;;;33.80;;
25125;SDS011;13106;50.808;5.670;2022-12-05T03:00:08;67.13;;;35.45;;
25125;SDS011;13106;50.808;5.670;2022-12-05T03:02:38;73.97;;;37.42;;
25125;SDS011;13106;50.808;5.670;2022-12-05T03:05:16;72.20;;;34.90;;
25125;SDS011;13106;50.808;5.670;2022-12-05T03:07:45;68.32;;;37.33;;
25125;SDS011;13106;50.808;5.670;2022-12-05T03:10:12;69.85;;;39.08;;
25125;SDS011;13106;50.808;5.670;2022-12-05T03:12:40;68.93;;;39.47;;
25125;SDS011;13106;50.808;5.670;2022-12-05T03:15:09;67.40;;;37.43;;
25125;SDS011;13106;50.808;5.670;2022-12-05T03:17:42;64.18;;;36.10;;
25125;SDS011;13106;50.808;5.670;2022-12-05T03:20:27;70.30;;;40.30;;
25125;SDS011;13106;50.808;5.670;2022-12-05T03:22:58;71.68;;;38.35;;
25125;SDS011;13106;50.808;5.670;2022-12-05T03:25:29;65.00;;;36.42;;
25125;SDS011;13106;50.808;5.670;2022-12-05T03:28:01;67.68;;;36.80;;
25125;SDS011;13106;50.808;5.670;2022-12-05T03:30:28;73.32;;;35.22;;
25125;SDS011;13106;50.808;5.670;2022-12-05T03:33:04;63.00;;;36.35;;
25125;SDS011;13106;50.808;5.670;2022-12-05T03:35:36;66.80;;;36.08;;
25125;SDS011;13106;50.808;5.670;2022-12-05T03:38:09;70.25;;;33.30;;
25125;SDS011;13106;50.808;5.670;2022-12-05T03:46:03;58.30;;;31.58;;
25125;SDS011;13106;50.808;5.670;2022-12-05T03:48:31;64.03;;;32.30;;
25125;SDS011;13106;50.808;5.670;2022-12-05T03:51:00;61.65;;;33.03;;
25125;SDS011;13106;50.808;5.670;2022-12-05T03:53:27;68.82;;;34.20;;
25125;SDS011;13106;50.808;5.670;2022-12-05T03:55:56;67.72;;;34.97;;
25125;SDS011;13106;50.808;5.670;2022-12-05T03:58:25;64.35;;;34.90;;
25125;SDS011;13106;50.808;5.670;2022-12-05T04:00:52;62.83;;;31.70;;
25125;SDS011;13106;50.808;5.670;2022-12-05T04:03:24;62.85;;;32.95;;
25125;SDS011;13106;50.808;5.670;2022-12-05T04:05:53;65.57;;;33.83;;
25125;SDS011;13106;50.808;5.670;2022-12-05T04:10:49;65.10;;;34.90;;
25125;SDS011;13106;50.808;5.670;2022-12-05T04:15:55;63.15;;;33.90;;
25125;SDS011;13106;50.808;5.670;2022-12-05T04:18:43;64.93;;;38.40;;
25125;SDS011;13106;50.808;5.670;2022-12-05T04:21:10;68.80;;;36.00;;
25125;SDS011;13106;50.808;5.670;2022-12-05T04:23:55;63.47;;;32.30;;
25125;SDS011;13106;50.808;5.670;2022-12-05T04:26:42;60.08;;;31.13;;
25125;SDS011;13106;50.808;5.670;2022-12-05T04:29:14;67.50;;;32.47;;
25125;SDS011;13106;50.808;5.670;2022-12-05T04:31:43;63.35;;;32.20;;
25125;SDS011;13106;50.808;5.670;2022-12-05T04:34:13;62.28;;;34.35;;
25125;SDS011;13106;50.808;5.670;2022-12-05T04:36:44;54.53;;;31.70;;
25125;SDS011;13106;50.808;5.670;2022-12-05T04:41:59;60.33;;;33.58;;
25125;SDS011;13106;50.808;5.670;2022-12-05T04:44:32;61.78;;;33.88;;
25125;SDS011;13106;50.808;5.670;2022-12-05T04:47:00;66.10;;;34.47;;
25125;SDS011;13106;50.808;5.670;2022-12-05T04:49:27;57.88;;;30.67;;
25125;SDS011;13106;50.808;5.670;2022-12-05T04:51:56;55.90;;;31.80;;
25125;SDS011;13106;50.808;5.670;2022-12-05T04:54:26;62.55;;;33.67;;
25125;SDS011;13106;50.808;5.670;2022-12-05T04:56:53;61.40;;;31.37;;
25125;SDS011;13106;50.808;5.670;2022-12-05T04:59:21;61.65;;;32.28;;
25125;SDS011;13106;50.808;5.670;2022-12-05T05:01:48;52.53;;;30.02;;
25125;SDS011;13106;50.808;5.670;2022-12-05T05:04:16;54.67;;;29.75;;
25125;SDS011;13106;50.808;5.670;2022-12-05T05:06:44;55.08;;;31.70;;
25125;SDS011;13106;50.808;5.670;2022-12-05T05:09:10;54.75;;;31.42;;
25125;SDS011;13106;50.808;5.670;2022-12-05T05:11:36;50.40;;;29.80;;
25125;SDS011;13106;50.808;5.670;2022-12-05T05:14:02;53.05;;;31.70;;
25125;SDS011;13106;50.808;5.670;2022-12-05T05:16:29;46.92;;;30.80;;
25125;SDS011;13106;50.808;5.670;2022-12-05T05:18:55;50.85;;;30.02;;
25125;SDS011;13106;50.808;5.670;2022-12-05T05:21:23;52.05;;;29.13;;
25125;SDS011;13106;50.808;5.670;2022-12-05T05:23:49;50.25;;;30.00;;
25125;SDS011;13106;50.808;5.670;2022-12-05T05:26:15;44.35;;;26.13;;
25125;SDS011;13106;50.808;5.670;2022-12-05T05:28:42;49.28;;;30.60;;
25125;SDS011;13106;50.808;5.670;2022-12-05T05:31:08;51.55;;;29.27;;
25125;SDS011;13106;50.808;5.670;2022-12-05T05:33:34;50.15;;;27.08;;
25125;SDS011;13106;50.808;5.670;2022-12-05T05:38:30;53.20;;;30.38;;
25125;SDS011;13106;50.808;5.670;2022-12-05T05:40:56;48.95;;;26.90;;
25125;SDS011;13106;50.808;5.670;2022-12-05T05:43:22;51.67;;;28.35;;
25125;SDS011;13106;50.808;5.670;2022-12-05T05:45:48;47.95;;;33.22;;
25125;SDS011;13106;50.808;5.670;2022-12-05T05:48:14;50.22;;;25.25;;
25125;SDS011;13106;50.808;5.670;2022-12-05T05:50:40;54.88;;;26.67;;
25125;SDS011;13106;50.808;5.670;2022-12-05T05:53:06;45.15;;;26.08;;
25125;SDS011;13106;50.808;5.670;2022-12-05T05:55:32;54.10;;;25.60;;
25125;SDS011;13106;50.808;5.670;2022-12-05T05:57:58;49.30;;;25.95;;
25125;SDS011;13106;50.808;5.670;2022-12-05T06:00:24;49.75;;;25.35;;
25125;SDS011;13106;50.808;5.670;2022-12-05T06:02:50;44.15;;;24.10;;
25125;SDS011;13106;50.808;5.670;2022-12-05T06:05:16;45.00;;;24.77;;
25125;SDS011;13106;50.808;5.670;2022-12-05T06:07:42;43.00;;;22.45;;
25125;SDS011;13106;50.808;5.670;2022-12-05T06:10:08;47.92;;;23.95;;
25125;SDS011;13106;50.808;5.670;2022-12-05T06:12:34;45.35;;;24.20;;
25125;SDS011;13106;50.808;5.670;2022-12-05T06:15:00;43.60;;;26.75;;
25125;SDS011;13106;50.808;5.670;2022-12-05T06:17:26;41.47;;;23.90;;
25125;SDS011;13106;50.808;5.670;2022-12-05T06:19:52;43.53;;;22.55;;
25125;SDS011;13106;50.808;5.670;2022-12-05T06:22:18;40.30;;;23.23;;
25125;SDS011;13106;50.808;5.670;2022-12-05T06:24:44;46.75;;;25.10;;
25125;SDS011;13106;50.808;5.670;2022-12-05T06:27:10;45.08;;;27.75;;
25125;SDS011;13106;50.808;5.670;2022-12-05T06:29:36;47.03;;;30.05;;
25125;SDS011;13106;50.808;5.670;2022-12-05T06:32:02;60.72;;;45.53;;
25125;SDS011;13106;50.808;5.670;2022-12-05T06:34:29;53.55;;;44.92;;
25125;SDS011;13106;50.808;5.670;2022-12-05T06:36:56;53.38;;;45.17;;
25125;SDS011;13106;50.808;5.670;2022-12-05T06:39:22;57.53;;;48.15;;
25125;SDS011;13106;50.808;5.670;2022-12-05T06:41:48;60.38;;;47.38;;
25125;SDS011;13106;50.808;5.670;2022-12-05T06:44:14;56.60;;;45.10;;
25125;SDS011;13106;50.808;5.670;2022-12-05T06:46:40;45.90;;;24.95;;
25125;SDS011;13106;50.808;5.670;2022-12-05T06:49:08;42.00;;;25.02;;
25125;SDS011;13106;50.808;5.670;2022-12-05T06:51:35;46.35;;;26.55;;
25125;SDS011;13106;50.808;5.670;2022-12-05T06:54:01;56.92;;;50.30;;
25125;SDS011;13106;50.808;5.670;2022-12-05T06:56:27;50.92;;;44.55;;
25125;SDS011;13106;50.808;5.670;2022-12-05T06:58:53;53.08;;;46.17;;
25125;SDS011;13106;50.808;5.670;2022-12-05T07:01:21;53.65;;;47.03;;
25125;SDS011;13106;50.808;5.670;2022-12-05T07:04:07;53.50;;;42.65;;
25125;SDS011;13106;50.808;5.670;2022-12-05T07:06:34;49.10;;;43.92;;
25125;SDS011;13106;50.808;5.670;2022-12-05T07:09:00;48.00;;;42.45;;
25125;SDS011;13106;50.808;5.670;2022-12-05T07:11:26;49.53;;;44.13;;
25125;SDS011;13106;50.808;5.670;2022-12-05T07:13:52;50.45;;;45.10;;
25125;SDS011;13106;50.808;5.670;2022-12-05T07:16:18;51.65;;;46.20;;
25125;SDS011;13106;50.808;5.670;2022-12-05T07:18:44;49.47;;;43.75;;
25125;SDS011;13106;50.808;5.670;2022-12-05T07:21:11;47.83;;;42.83;;
25125;SDS011;13106;50.808;5.670;2022-12-05T07:23:37;49.92;;;43.25;;
25125;SDS011;13106;50.808;5.670;2022-12-05T07:26:07;49.55;;;44.25;;
25125;SDS011;13106;50.808;5.670;2022-12-05T07:28:34;48.38;;;43.17;;
25125;SDS011;13106;50.808;5.670;2022-12-05T07:31:00;46.30;;;38.67;;
25125;SDS011;13106;50.808;5.670;2022-12-05T07:33:27;48.50;;;39.55;;
25125;SDS011;13106;50.808;5.670;2022-12-05T07:36:00;50.22;;;42.50;;
25125;SDS011;13106;50.808;5.670;2022-12-05T07:38:26;49.35;;;39.83;;
25125;SDS011;13106;50.808;5.670;2022-12-05T07:40:53;50.08;;;40.63;;
25125;SDS011;13106;50.808;5.670;2022-12-05T07:43:19;47.95;;;37.88;;
25125;SDS011;13106;50.808;5.670;2022-12-05T07:45:45;49.85;;;40.55;;
25125;SDS011;13106;50.808;5.670;2022-12-05T07:48:11;50.38;;;44.03;;
25125;SDS011;13106;50.808;5.670;2022-12-05T07:50:37;48.03;;;42.20;;
25125;SDS011;13106;50.808;5.670;2022-12-05T07:53:03;45.53;;;39.05;;
25125;SDS011;13106;50.808;5.670;2022-12-05T07:55:29;47.42;;;37.17;;
25125;SDS011;13106;50.808;5.670;2022-12-05T07:57:55;47.25;;;38.20;;
25125;SDS011;13106;50.808;5.670;2022-12-05T08:00:21;45.72;;;38.20;;
25125;SDS011;13106;50.808;5.670;2022-12-05T08:02:47;45.13;;;40.28;;
25125;SDS011;13106;50.808;5.670;2022-12-05T08:05:14;44.75;;;39.83;;
25125;SDS011;13106;50.808;5.670;2022-12-05T08:07:41;46.88;;;34.03;;
25125;SDS011;13106;50.808;5.670;2022-12-05T08:10:07;63.80;;;57.40;;
25125;SDS011;13106;50.808;5.670;2022-12-05T08:12:33;44.60;;;23.98;;
25125;SDS011;13106;50.808;5.670;2022-12-05T08:14:59;39.30;;;23.33;;
25125;SDS011;13106;50.808;5.670;2022-12-05T08:17:28;40.40;;;24.23;;
25125;SDS011;13106;50.808;5.670;2022-12-05T08:19:54;41.13;;;24.48;;
25125;SDS011;13106;50.808;5.670;2022-12-05T08:22:20;41.65;;;24.10;;
25125;SDS011;13106;50.808;5.670;2022-12-05T08:24:48;40.67;;;23.88;;
25125;SDS011;13106;50.808;5.670;2022-12-05T08:27:14;45.97;;;25.63;;
25125;SDS011;13106;50.808;5.670;2022-12-05T08:29:41;42.05;;;25.52;;
25125;SDS011;13106;50.808;5.670;2022-12-05T08:32:07;45.15;;;26.58;;
25125;SDS011;13106;50.808;5.670;2022-12-05T08:34:32;41.38;;;24.80;;
25125;SDS011;13106;50.808;5.670;2022-12-05T08:36:58;40.40;;;23.98;;
25125;SDS011;13106;50.808;5.670;2022-12-05T08:39:24;39.55;;;25.08;;
25125;SDS011;13106;50.808;5.670;2022-12-05T08:41:51;43.17;;;24.80;;
25125;SDS011;13106;50.808;5.670;2022-12-05T08:44:17;41.45;;;24.13;;
25125;SDS011;13106;50.808;5.670;2022-12-05T08:46:45;43.83;;;25.10;;
25125;SDS011;13106;50.808;5.670;2022-12-05T08:49:13;38.15;;;24.65;;
25125;SDS011;13106;50.808;5.670;2022-12-05T08:51:39;41.13;;;25.17;;
25125;SDS011;13106;50.808;5.670;2022-12-05T08:54:06;47.15;;;27.27;;
25125;SDS011;13106;50.808;5.670;2022-12-05T08:56:32;44.92;;;26.77;;
25125;SDS011;13106;50.808;5.670;2022-12-05T08:58:58;46.55;;;26.88;;
25125;SDS011;13106;50.808;5.670;2022-12-05T09:01:26;45.25;;;26.23;;
25125;SDS011;13106;50.808;5.670;2022-12-05T09:03:55;44.00;;;27.20;;
25125;SDS011;13106;50.808;5.670;2022-12-05T09:06:22;48.28;;;27.60;;
25125;SDS011;13106;50.808;5.670;2022-12-05T09:08:48;48.00;;;27.27;;
25125;SDS011;13106;50.808;5.670;2022-12-05T09:11:18;45.10;;;26.20;;
25125;SDS011;13106;50.808;5.670;2022-12-05T09:13:45;49.40;;;27.67;;
25125;SDS011;13106;50.808;5.670;2022-12-05T09:16:14;55.40;;;30.05;;
25125;SDS011;13106;50.808;5.670;2022-12-05T09:18:41;56.63;;;30.70;;
25125;SDS011;13106;50.808;5.670;2022-12-05T09:21:11;51.40;;;29.73;;
25125;SDS011;13106;50.808;5.670;2022-12-05T09:23:37;54.45;;;30.55;;
25125;SDS011;13106;50.808;5.670;2022-12-05T09:26:04;54.78;;;30.60;;
25125;SDS011;13106;50.808;5.670;2022-12-05T09:28:30;57.30;;;32.47;;
25125;SDS011;13106;50.808;5.670;2022-12-05T09:30:57;53.90;;;29.65;;
25125;SDS011;13106;50.808;5.670;2022-12-05T09:33:23;59.67;;;31.85;;
25125;SDS011;13106;50.808;5.670;2022-12-05T09:35:49;60.13;;;31.83;;
25125;SDS011;13106;50.808;5.670;2022-12-05T09:38:15;58.50;;;31.70;;
25125;SDS011;13106;50.808;5.670;2022-12-05T09:40:41;58.25;;;31.65;;
25125;SDS011;13106;50.808;5.670;2022-12-05T09:43:08;65.15;;;33.83;;
25125;SDS011;13106;50.808;5.670;2022-12-05T09:45:44;64.50;;;34.78;;
25125;SDS011;13106;50.808;5.670;2022-12-05T09:48:17;60.15;;;32.75;;
25125;SDS011;13106;50.808;5.670;2022-12-05T09:50:48;52.03;;;28.33;;
25125;SDS011;13106;50.808;5.670;2022-12-05T09:55:43;54.30;;;30.20;;
25125;SDS011;13106;50.808;5.670;2022-12-05T10:00:51;51.28;;;28.80;;
25125;SDS011;13106;50.808;5.670;2022-12-05T10:03:20;55.25;;;31.42;;
25125;SDS011;13106;50.808;5.670;2022-12-05T10:05:50;57.60;;;29.95;;
25125;SDS011;13106;50.808;5.670;2022-12-05T10:11:04;57.33;;;30.85;;
25125;SDS011;13106;50.808;5.670;2022-12-05T10:16:16;57.13;;;30.45;;
25125;SDS011;13106;50.808;5.670;2022-12-05T10:18:45;61.42;;;31.95;;
25125;SDS011;13106;50.808;5.670;2022-12-05T10:21:18;60.10;;;30.73;;
25125;SDS011;13106;50.808;5.670;2022-12-05T10:23:48;63.05;;;33.72;;
25125;SDS011;13106;50.808;5.670;2022-12-05T10:31:29;63.08;;;31.98;;
25125;SDS011;13106;50.808;5.670;2022-12-05T10:34:11;61.10;;;31.88;;
25125;SDS011;13106;50.808;5.670;2022-12-05T10:36:41;60.30;;;33.08;;
25125;SDS011;13106;50.808;5.670;2022-12-05T10:39:09;55.72;;;31.98;;
25125;SDS011;13106;50.808;5.670;2022-12-05T10:41:35;65.22;;;33.38;;
25125;SDS011;13106;50.808;5.670;2022-12-05T10:44:01;57.97;;;31.70;;
25125;SDS011;13106;50.808;5.670;2022-12-05T10:46:28;61.33;;;32.45;;
25125;SDS011;13106;50.808;5.670;2022-12-05T10:48:55;60.92;;;32.05;;
25125;SDS011;13106;50.808;5.670;2022-12-05T10:51:22;61.15;;;33.78;;
25125;SDS011;13106;50.808;5.670;2022-12-05T10:53:50;57.95;;;31.13;;
25125;SDS011;13106;50.808;5.670;2022-12-05T10:59:00;57.92;;;32.17;;
25125;SDS011;13106;50.808;5.670;2022-12-05T11:01:26;61.83;;;32.63;;
25125;SDS011;13106;50.808;5.670;2022-12-05T11:04:03;63.58;;;34.50;;
25125;SDS011;13106;50.808;5.670;2022-12-05T11:06:31;64.95;;;36.67;;
25125;SDS011;13106;50.808;5.670;2022-12-05T11:11:41;64.32;;;34.20;;
25125;SDS011;13106;50.808;5.670;2022-12-05T11:14:23;59.85;;;32.42;;
25125;SDS011;13106;50.808;5.670;2022-12-05T11:16:51;60.13;;;33.70;;
25125;SDS011;13106;50.808;5.670;2022-12-05T11:19:22;60.75;;;33.75;;
25125;SDS011;13106;50.808;5.670;2022-12-05T11:21:49;59.70;;;33.28;;
25125;SDS011;13106;50.808;5.670;2022-12-05T11:24:20;59.92;;;34.20;;
25125;SDS011;13106;50.808;5.670;2022-12-05T11:26:47;57.25;;;33.53;;
25125;SDS011;13106;50.808;5.670;2022-12-05T11:31:58;56.15;;;31.42;;
25125;SDS011;13106;50.808;5.670;2022-12-05T11:34:26;57.40;;;32.58;;
25125;SDS011;13106;50.808;5.670;2022-12-05T11:36:53;54.08;;;32.10;;
25125;SDS011;13106;50.808;5.670;2022-12-05T11:39:21;52.83;;;30.23;;
25125;SDS011;13106;50.808;5.670;2022-12-05T11:41:59;55.72;;;32.50;;
25125;SDS011;13106;50.808;5.670;2022-12-05T11:55:14;53.00;;;30.27;;
25125;SDS011;13106;50.808;5.670;2022-12-05T12:08:24;44.97;;;27.60;;
25125;SDS011;13106;50.808;5.670;2022-12-05T12:13:29;50.85;;;31.38;;
25125;SDS011;13106;50.808;5.670;2022-12-05T12:24:42;51.65;;;29.75;;
25125;SDS011;13106;50.808;5.670;2022-12-05T12:32:31;52.30;;;31.15;;
25125;SDS011;13106;50.808;5.670;2022-12-05T12:37:52;49.33;;;27.73;;
25125;SDS011;13106;50.808;5.670;2022-12-05T12:45:35;46.58;;;27.70;;
25125;SDS011;13106;50.808;5.670;2022-12-05T12:50:36;46.95;;;27.55;;
25125;SDS011;13106;50.808;5.670;2022-12-05T12:56:00;47.97;;;29.58;;
25125;SDS011;13106;50.808;5.670;2022-12-05T13:03:26;48.13;;;29.75;;
25125;SDS011;13106;50.808;5.670;2022-12-05T13:05:57;48.10;;;29.30;;
25125;SDS011;13106;50.808;5.670;2022-12-05T13:08:27;44.70;;;27.92;;
25125;SDS011;13106;50.808;5.670;2022-12-05T13:10:54;43.95;;;27.55;;
25125;SDS011;13106;50.808;5.670;2022-12-05T13:13:24;46.45;;;28.58;;
25125;SDS011;13106;50.808;5.670;2022-12-05T13:15:53;48.45;;;28.90;;
25125;SDS011;13106;50.808;5.670;2022-12-05T13:18:21;51.08;;;28.77;;
25125;SDS011;13106;50.808;5.670;2022-12-05T13:20:49;52.28;;;30.50;;
25125;SDS011;13106;50.808;5.670;2022-12-05T13:23:17;58.15;;;30.15;;
25125;SDS011;13106;50.808;5.670;2022-12-05T13:25:44;55.05;;;31.75;;
25125;SDS011;13106;50.808;5.670;2022-12-05T13:28:22;56.17;;;31.45;;
25125;SDS011;13106;50.808;5.670;2022-12-05T13:30:49;57.42;;;32.85;;
25125;SDS011;13106;50.808;5.670;2022-12-05T13:33:25;50.50;;;30.42;;
25125;SDS011;13106;50.808;5.670;2022-12-05T13:35:55;52.50;;;31.38;;
25125;SDS011;13106;50.808;5.670;2022-12-05T13:38:40;52.97;;;29.20;;
25125;SDS011;13106;50.808;5.670;2022-12-05T13:41:38;47.78;;;28.70;;
25125;SDS011;13106;50.808;5.670;2022-12-05T13:44:26;49.33;;;28.13;;
25125;SDS011;13106;50.808;5.670;2022-12-05T13:49:25;36.88;;;23.95;;
25125;SDS011;13106;50.808;5.670;2022-12-05T13:51:53;34.03;;;22.98;;
25125;SDS011;13106;50.808;5.670;2022-12-05T13:54:20;36.08;;;23.90;;
25125;SDS011;13106;50.808;5.670;2022-12-05T13:56:52;39.63;;;25.42;;
25125;SDS011;13106;50.808;5.670;2022-12-05T14:02:13;36.50;;;24.48;;
25125;SDS011;13106;50.808;5.670;2022-12-05T14:04:49;38.53;;;25.20;;
25125;SDS011;13106;50.808;5.670;2022-12-05T14:07:36;42.35;;;24.90;;
25125;SDS011;13106;50.808;5.670;2022-12-05T14:10:03;40.85;;;25.70;;
25125;SDS011;13106;50.808;5.670;2022-12-05T14:12:30;39.42;;;24.65;;
25125;SDS011;13106;50.808;5.670;2022-12-05T14:17:50;37.60;;;23.05;;
25125;SDS011;13106;50.808;5.670;2022-12-05T14:22:47;31.80;;;19.65;;
25125;SDS011;13106;50.808;5.670;2022-12-05T14:25:39;30.27;;;20.83;;
25125;SDS011;13106;50.808;5.670;2022-12-05T14:28:09;33.42;;;21.90;;
25125;SDS011;13106;50.808;5.670;2022-12-05T14:30:50;33.78;;;22.30;;
25125;SDS011;13106;50.808;5.670;2022-12-05T14:35:45;33.55;;;21.73;;
25125;SDS011;13106;50.808;5.670;2022-12-05T14:38:25;35.15;;;21.85;;
25125;SDS011;13106;50.808;5.670;2022-12-05T14:40:52;34.58;;;21.80;;
25125;SDS011;13106;50.808;5.670;2022-12-05T14:50:47;31.23;;;21.02;;
25125;SDS011;13106;50.808;5.670;2022-12-05T14:55:53;29.85;;;20.20;;
25125;SDS011;13106;50.808;5.670;2022-12-05T15:00:55;32.63;;;21.40;;
25125;SDS011;13106;50.808;5.670;2022-12-05T15:03:23;35.80;;;21.90;;
25125;SDS011;13106;50.808;5.670;2022-12-05T15:05:50;34.30;;;21.15;;
25125;SDS011;13106;50.808;5.670;2022-12-05T15:08:17;29.65;;;20.75;;
25125;SDS011;13106;50.808;5.670;2022-12-05T15:10:44;30.85;;;21.98;;
25125;SDS011;13106;50.808;5.670;2022-12-05T15:13:15;35.33;;;22.77;;
25125;SDS011;13106;50.808;5.670;2022-12-05T15:15:43;31.25;;;20.55;;
25125;SDS011;13106;50.808;5.670;2022-12-05T15:21:00;32.00;;;21.58;;
25125;SDS011;13106;50.808;5.670;2022-12-05T15:26:13;35.15;;;23.35;;
25125;SDS011;13106;50.808;5.670;2022-12-05T15:28:40;35.60;;;22.80;;
25125;SDS011;13106;50.808;5.670;2022-12-05T15:31:21;36.60;;;23.35;;
25125;SDS011;13106;50.808;5.670;2022-12-05T15:33:51;32.92;;;22.30;;
25125;SDS011;13106;50.808;5.670;2022-12-05T15:36:20;31.58;;;21.50;;
25125;SDS011;13106;50.808;5.670;2022-12-05T15:38:48;34.75;;;22.35;;
25125;SDS011;13106;50.808;5.670;2022-12-05T15:41:15;38.58;;;24.63;;
25125;SDS011;13106;50.808;5.670;2022-12-05T15:43:42;35.60;;;23.25;;
25125;SDS011;13106;50.808;5.670;2022-12-05T15:46:19;35.33;;;22.73;;
25125;SDS011;13106;50.808;5.670;2022-12-05T15:48:48;45.65;;;29.58;;
25125;SDS011;13106;50.808;5.670;2022-12-05T15:51:14;37.33;;;25.02;;
25125;SDS011;13106;50.808;5.670;2022-12-05T15:53:48;35.42;;;24.90;;
25125;SDS011;13106;50.808;5.670;2022-12-05T15:56:23;33.05;;;22.83;;
25125;SDS011;13106;50.808;5.670;2022-12-05T16:01:34;33.30;;;23.02;;
25125;SDS011;13106;50.808;5.670;2022-12-05T16:08:59;41.83;;;26.15;;
25125;SDS011;13106;50.808;5.670;2022-12-05T16:11:29;39.95;;;26.40;;
25125;SDS011;13106;50.808;5.670;2022-12-05T16:14:00;45.47;;;27.70;;
25125;SDS011;13106;50.808;5.670;2022-12-05T16:16:28;46.10;;;28.00;;
25125;SDS011;13106;50.808;5.670;2022-12-05T16:19:03;50.17;;;29.95;;
25125;SDS011;13106;50.808;5.670;2022-12-05T16:21:33;44.10;;;27.70;;
25125;SDS011;13106;50.808;5.670;2022-12-05T16:24:04;44.70;;;27.88;;
25125;SDS011;13106;50.808;5.670;2022-12-05T16:26:34;53.50;;;30.42;;
25125;SDS011;13106;50.808;5.670;2022-12-05T16:29:00;49.00;;;30.15;;
25125;SDS011;13106;50.808;5.670;2022-12-05T16:31:27;51.22;;;31.02;;
25125;SDS011;13106;50.808;5.670;2022-12-05T16:34:00;53.70;;;31.08;;
25125;SDS011;13106;50.808;5.670;2022-12-05T16:36:27;49.78;;;29.70;;
25125;SDS011;13106;50.808;5.670;2022-12-05T16:39:05;55.38;;;31.73;;
25125;SDS011;13106;50.808;5.670;2022-12-05T16:41:36;61.28;;;34.85;;
25125;SDS011;13106;50.808;5.670;2022-12-05T16:44:03;58.67;;;35.10;;
25125;SDS011;13106;50.808;5.670;2022-12-05T16:51:45;47.55;;;29.33;;
25125;SDS011;13106;50.808;5.670;2022-12-05T16:54:17;42.00;;;27.35;;
25125;SDS011;13106;50.808;5.670;2022-12-05T16:56:43;41.30;;;28.05;;
25125;SDS011;13106;50.808;5.670;2022-12-05T16:59:12;37.35;;;26.15;;
25125;SDS011;13106;50.808;5.670;2022-12-05T17:01:42;44.60;;;27.90;;
25125;SDS011;13106;50.808;5.670;2022-12-05T17:04:08;40.65;;;26.75;;
25125;SDS011;13106;50.808;5.670;2022-12-05T17:06:35;41.30;;;26.20;;
25125;SDS011;13106;50.808;5.670;2022-12-05T17:09:01;38.70;;;25.17;;
25125;SDS011;13106;50.808;5.670;2022-12-05T17:11:31;38.33;;;25.33;;